メインページ
METAR-TAF:

METAR-TAF

空港 :

ムンバイ, インド

チャトラパティ・シヴァージー国際空港

緯度: 19-07N, 経度: 072-51E, 海抜: 8m

現時点の気象観測

当レポートは24分前の17:00(UTC)に作成
西/北西の風 3kt
気温 30°C
湿度 52%
気圧 1011 hPa
視程: 3500m

METAR: VABB 251700Z 29003KT 3500 FU NSC 30/19 Q1011 NOSIG

時間: 22:54 (17:24 UTC)

予報

当レポートは6時間24分前の11:00(UTC)に作成
予報は25日の 12時(UTC)から 26日の 18時(UTC)まで有効
北西の風 8kt
視程: 4000m
25日の 18時(UTC)から 25日の 20時(UTC)まで徐々に
視程: 3000m
煙霧
26日の 00時(UTC)から 26日の 02時(UTC)まで徐々に
東/南東の風 3kt
26日の 04時(UTC)から 26日の 06時(UTC)まで徐々に
西の風 8kt
視程: 4000m
26日の 09時(UTC)から 26日の 11時(UTC)まで徐々に
視程: 5000m
26日の 15時(UTC)から 26日の 17時(UTC)まで徐々に
北/北西の風 6kt
視程: 3500m
煙霧

TAF: VABB 251100Z 2512/2618 31008KT 4000 FU NSC BECMG 2518/2520 3000 HZ BECMG 2600/2602 12003KT BECMG 2604/2606 28008KT 4000 FU BECMG 2609/2611 5000 FU BECMG 2615/2617 34006KT 3500 HZ

4,000以上の空港の気象観測と天気予報(METAR報とTAF報)

利用可能な観測所は地図上に黄色い丸と赤い丸で示す。

丸の上にカーソルを重ねると観測所名を参照できる。

次にクリックすると気象観測と天気予報を参照できる。

マップの切り替え:黒色「×」印の緑ボタンをクリックして拡大、「-」印の緑ボタンをクリックして縮小、緑色の三角印をクリックして隣りの地図に切り替え


METAR-TAF: